createdAt,value
2018-06-03T00:02:23.701Z,100838.16
2018-06-03T00:04:52.177Z,100845.66
2018-06-03T00:07:20.639Z,100836.09
2018-06-03T00:09:49.128Z,100838.62
2018-06-03T00:12:17.569Z,100838.67
2018-06-03T00:14:45.991Z,100847.47
2018-06-03T00:17:14.413Z,100841.24
2018-06-03T00:19:42.851Z,100845.69
2018-06-03T00:22:18.908Z,100851.59
2018-06-03T00:24:47.336Z,100848.38
2018-06-03T00:27:15.786Z,100854.43
2018-06-03T00:29:44.232Z,100852.27
2018-06-03T00:32:12.660Z,100848.81
2018-06-03T00:34:41.088Z,100845.11
2018-06-03T00:37:09.574Z,100851.39
2018-06-03T00:39:38.020Z,100855.70
2018-06-03T00:42:06.559Z,100850.25
2018-06-03T00:44:35.013Z,100847.05
2018-06-03T00:47:03.597Z,100846.31
2018-06-03T00:49:32.083Z,100848.30
2018-06-03T00:52:00.570Z,100854.31
2018-06-03T00:54:29.550Z,100852.19
2018-06-03T00:57:09.097Z,100847.84
2018-06-03T00:59:37.791Z,100847.52
2018-06-03T01:02:06.278Z,100850.05
2018-06-03T01:04:34.760Z,100849.63
2018-06-03T01:07:03.313Z,100844.05
2018-06-03T01:09:31.805Z,100840.06
2018-06-03T01:12:00.244Z,100846.31
2018-06-03T01:14:28.707Z,100847.95
2018-06-03T01:16:57.248Z,100848.67
2018-06-03T01:19:26.129Z,100847.45
2018-06-03T01:21:54.620Z,100845.52
2018-06-03T01:24:23.102Z,100851.73
2018-06-03T01:26:51.606Z,100846.94
2018-06-03T01:29:20.064Z,100850.16
2018-06-03T01:31:48.775Z,100845.43
2018-06-03T01:34:17.236Z,100852.77
2018-06-03T01:36:45.730Z,100846.22
2018-06-03T01:39:14.198Z,100849.19
2018-06-03T01:41:42.680Z,100852.27
2018-06-03T01:44:11.147Z,100849.36
2018-06-03T01:46:39.606Z,100848.19
2018-06-03T01:49:08.029Z,100851.11
2018-06-03T01:51:36.462Z,100845.94
2018-06-03T01:54:04.981Z,100845.94
2018-06-03T01:56:33.582Z,100840.10
2018-06-03T01:59:02.062Z,100838.23
2018-06-03T02:01:30.529Z,100837.06
2018-06-03T02:03:58.962Z,100829.30
2018-06-03T02:06:28.137Z,100835.81
2018-06-03T02:08:56.585Z,100843.58
2018-06-03T02:11:25.108Z,100843.75
2018-06-03T02:13:53.567Z,100843.70
2018-06-03T02:16:22.022Z,100844.09
2018-06-03T02:18:50.517Z,100841.95
2018-06-03T02:21:18.947Z,100845.45
2018-06-03T02:23:47.483Z,100843.66
2018-06-03T02:26:15.989Z,100854.88
2018-06-03T02:28:44.506Z,100846.34
2018-06-03T02:31:13.012Z,100850.67
2018-06-03T02:33:41.542Z,100843.75
2018-06-03T02:36:10.051Z,100845.84
2018-06-03T02:38:38.518Z,100844.59
2018-06-03T02:41:06.983Z,100838.13
2018-06-03T02:43:35.457Z,100841.58
2018-06-03T02:46:04.281Z,100841.17
2018-06-03T02:48:32.705Z,100847.25
2018-06-03T02:51:01.120Z,100847.30
2018-06-03T02:53:29.602Z,100847.25
2018-06-03T02:55:58.071Z,100849.84
2018-06-03T02:58:26.526Z,100852.47
2018-06-03T03:00:54.996Z,100842.96
2018-06-03T03:03:23.423Z,100845.96
2018-06-03T03:05:52.139Z,100847.17
2018-06-03T03:08:20.607Z,100849.84
2018-06-03T03:10:49.037Z,100848.55
2018-06-03T03:13:17.567Z,100851.05
2018-06-03T03:15:46.066Z,100851.46
2018-06-03T03:18:14.503Z,100853.59
2018-06-03T03:20:42.946Z,100848.92
2018-06-03T03:23:11.378Z,100850.13
2018-06-03T03:25:39.802Z,100848.33
2018-06-03T03:28:08.244Z,100849.71
2018-06-03T03:30:36.807Z,100848.47
2018-06-03T03:33:05.314Z,100845.27
2018-06-03T03:35:33.792Z,100843.98
2018-06-03T03:38:02.268Z,100848.85
2018-06-03T03:40:30.844Z,100846.59
2018-06-03T03:42:59.286Z,100850.43
2018-06-03T03:45:27.792Z,100849.92
2018-06-03T03:47:56.497Z,100855.94
2018-06-03T03:50:25.080Z,100857.17
2018-06-03T03:52:54.215Z,100859.59
2018-06-03T03:55:22.807Z,100860.33
2018-06-03T03:57:51.271Z,100860.09
2018-06-03T04:00:19.698Z,100858.08
2018-06-03T04:02:48.146Z,100857.95
2018-06-03T04:05:16.595Z,100863.58
2018-06-03T04:07:45.051Z,100856.93
2018-06-03T04:10:13.505Z,100856.14
2018-06-03T04:12:41.945Z,100855.59
2018-06-03T04:15:10.440Z,100855.54
2018-06-03T04:17:38.861Z,100852.32
2018-06-03T04:20:07.352Z,100860.59
2018-06-03T04:22:35.961Z,100851.58
2018-06-03T04:25:04.481Z,100854.81
2018-06-03T04:27:32.989Z,100850.34
2018-06-03T04:30:01.463Z,100855.79
2018-06-03T04:32:29.937Z,100855.41
2018-06-03T04:34:58.449Z,100855.64
2018-06-03T04:37:26.944Z,100856.12
2018-06-03T04:39:55.393Z,100854.59
2018-06-03T04:42:23.857Z,100857.08
2018-06-03T04:44:52.283Z,100857.22
2018-06-03T04:47:20.954Z,100848.89
2018-06-03T04:49:49.430Z,100859.71
2018-06-03T04:52:17.850Z,100862.11
2018-06-03T04:54:46.309Z,100863.25
2018-06-03T04:57:14.781Z,100867.30
2018-06-03T04:59:43.219Z,100865.35
2018-06-03T05:02:11.691Z,100863.17
2018-06-03T05:04:40.180Z,100865.23
2018-06-03T05:07:08.617Z,100865.39
2018-06-03T05:09:37.106Z,100866.35
2018-06-03T05:12:05.616Z,100867.55
2018-06-03T05:14:33.998Z,100864.88
2018-06-03T05:17:02.541Z,100864.30
2018-06-03T05:19:31.025Z,100870.58
2018-06-03T05:21:59.482Z,100872.49
2018-06-03T05:24:27.937Z,100870.30
2018-06-03T05:26:56.406Z,100866.84
2018-06-03T05:29:24.867Z,100868.83
2018-06-03T05:31:53.327Z,100878.33
2018-06-03T05:34:21.774Z,100870.21
2018-06-03T05:36:50.217Z,100861.75
2018-06-03T05:39:18.689Z,100866.45
2018-06-03T05:41:47.123Z,100862.84
2018-06-03T05:44:15.553Z,100868.17
2018-06-03T05:46:44.019Z,100865.98
2018-06-03T05:49:12.527Z,100867.05
2018-06-03T05:51:40.950Z,100871.34
2018-06-03T05:54:09.626Z,100868.48
2018-06-03T05:56:38.068Z,100866.27
2018-06-03T05:59:06.548Z,100880.70
2018-06-03T06:01:35.012Z,100875.28
2018-06-03T06:04:03.493Z,100870.87
2018-06-03T06:06:31.995Z,100876.86
2018-06-03T06:09:00.441Z,100878.13
2018-06-03T06:11:28.986Z,100880.42
2018-06-03T06:13:57.472Z,100877.27
2018-06-03T06:16:25.977Z,100881.30
2018-06-03T06:18:54.402Z,100880.53
2018-06-03T06:21:22.947Z,100879.02
2018-06-03T06:23:51.405Z,100885.16
2018-06-03T06:26:19.861Z,100887.30
2018-06-03T06:28:48.331Z,100888.58
2018-06-03T06:31:16.866Z,100893.80
2018-06-03T06:33:50.316Z,100898.53
2018-06-03T06:36:18.909Z,100902.57
2018-06-03T06:38:53.845Z,100900.12
2018-06-03T06:41:22.315Z,100900.94
2018-06-03T06:43:53.463Z,100895.98
2018-06-03T06:46:23.392Z,100890.84
2018-06-03T06:48:55.657Z,100895.17
2018-06-03T06:51:26.280Z,100898.34
2018-06-03T06:53:56.811Z,100899.52
2018-06-03T06:56:32.777Z,100901.05
2018-06-03T06:59:01.279Z,100904.55
2018-06-03T07:01:30.178Z,100904.92
2018-06-03T07:03:58.745Z,100901.03
2018-06-03T07:06:27.241Z,100906.91
2018-06-03T07:08:55.933Z,100908.63
2018-06-03T07:11:24.505Z,100907.52
2018-06-03T07:13:52.988Z,100905.38
2018-06-03T07:16:21.454Z,100909.30
2018-06-03T07:18:50.859Z,100911.81
2018-06-03T07:21:22.539Z,100911.30
2018-06-03T07:23:50.986Z,100909.31
2018-06-03T07:26:20.609Z,100911.63
2018-06-03T07:28:49.195Z,100916.86
2018-06-03T07:31:17.944Z,100917.01
2018-06-03T07:33:46.379Z,100923.28
2018-06-03T07:36:14.851Z,100925.63
2018-06-03T07:38:43.391Z,100915.20
2018-06-03T07:41:11.929Z,100914.25
2018-06-03T07:43:40.381Z,100925.67
2018-06-03T07:46:08.934Z,100920.15
2018-06-03T07:48:37.376Z,100921.73
2018-06-03T07:51:05.823Z,100921.63
2018-06-03T07:53:34.297Z,100920.02
2018-06-03T07:56:02.731Z,100924.74
2018-06-03T07:58:31.215Z,100926.34
2018-06-03T08:00:59.709Z,100921.36
2018-06-03T08:03:28.191Z,100920.09
2018-06-03T08:05:56.768Z,100920.41
2018-06-03T08:08:25.254Z,100920.81
2018-06-03T08:10:53.716Z,100917.22
2018-06-03T08:13:22.156Z,100916.42
2018-06-03T08:15:51.379Z,100920.44
2018-06-03T08:18:19.857Z,100921.80
2018-06-03T08:20:48.331Z,100916.75
2018-06-03T08:23:17.406Z,100910.71
2018-06-03T08:25:45.847Z,100914.30
2018-06-03T08:28:14.358Z,100917.81
2018-06-03T08:30:42.809Z,100913.08
2018-06-03T08:33:11.297Z,100915.37
2018-06-03T08:35:39.711Z,100919.01
2018-06-03T08:38:08.296Z,100914.89
2018-06-03T08:40:36.743Z,100919.01
2018-06-03T08:43:05.229Z,100913.31
2018-06-03T08:45:33.783Z,100916.08
2018-06-03T08:48:02.272Z,100908.93
2018-06-03T08:50:31.100Z,100908.46
2018-06-03T08:52:59.522Z,100908.33
2018-06-03T08:55:27.965Z,100904.43
2018-06-03T08:57:56.421Z,100905.38
2018-06-03T09:00:24.964Z,100905.17
2018-06-03T09:02:53.589Z,100908.11
2018-06-03T09:05:22.166Z,100911.23
2018-06-03T09:07:50.850Z,100910.22
2018-06-03T09:10:19.292Z,100913.23
2018-06-03T09:12:47.897Z,100910.74
2018-06-03T09:15:16.327Z,100909.92
2018-06-03T09:17:44.821Z,100916.34
2018-06-03T09:20:13.626Z,100907.87
2018-06-03T09:22:42.225Z,100903.33
2018-06-03T09:25:10.972Z,100907.69
2018-06-03T09:27:39.400Z,100906.34
2018-06-03T09:30:08.038Z,100900.55
2018-06-03T09:32:36.619Z,100899.83
2018-06-03T09:35:05.300Z,100904.86
2018-06-03T09:37:33.839Z,100896.22
2018-06-03T09:40:02.268Z,100898.14
2018-06-03T09:42:30.957Z,100891.19
2018-06-03T09:44:59.641Z,100898.02
2018-06-03T09:47:28.068Z,100896.11
2018-06-03T09:49:56.539Z,100901.27
2018-06-03T09:52:25.001Z,100901.81
2018-06-03T09:54:53.411Z,100896.20
2018-06-03T09:57:22.119Z,100894.27
2018-06-03T09:59:50.635Z,100892.22
2018-06-03T10:02:19.076Z,100892.20
2018-06-03T10:04:47.610Z,100884.12
2018-06-03T10:07:16.357Z,100882.18
2018-06-03T10:09:44.826Z,100886.44
2018-06-03T10:12:13.285Z,100889.06
2018-06-03T10:14:41.723Z,100885.94
2018-06-03T10:17:10.439Z,100890.41
2018-06-03T10:19:38.969Z,100886.24
2018-06-03T10:22:07.467Z,100885.52
2018-06-03T10:24:35.939Z,100880.95
2018-06-03T10:27:04.437Z,100885.61
2018-06-03T10:29:32.941Z,100884.58
2018-06-03T10:32:01.387Z,100889.62
2018-06-03T10:34:29.929Z,100877.73
2018-06-03T10:36:58.638Z,100884.90
2018-06-03T10:39:27.137Z,100886.05
2018-06-03T10:41:55.667Z,100883.88
2018-06-03T10:44:24.239Z,100882.34
2018-06-03T10:46:52.752Z,100881.33
2018-06-03T10:49:21.228Z,100876.67
2018-06-03T10:51:49.683Z,100878.02
2018-06-03T10:54:18.164Z,100881.26
2018-06-03T10:56:46.705Z,100867.34
2018-06-03T10:59:15.513Z,100872.77
2018-06-03T11:01:43.971Z,100871.66
2018-06-03T11:04:12.400Z,100862.53
2018-06-03T11:06:40.917Z,100863.33
2018-06-03T11:09:09.359Z,100869.26
2018-06-03T11:11:37.960Z,100869.36
2018-06-03T11:14:06.495Z,100867.41
2018-06-03T11:16:35.036Z,100855.17
2018-06-03T11:19:03.522Z,100859.45
2018-06-03T11:21:32.010Z,100856.35
2018-06-03T11:24:00.538Z,100849.59
2018-06-03T11:26:29.055Z,100849.45
2018-06-03T11:28:57.800Z,100850.28
2018-06-03T11:31:26.403Z,100844.66
2018-06-03T11:33:54.871Z,100844.02
2018-06-03T11:36:23.307Z,100845.70
2018-06-03T11:38:51.801Z,100840.84
2018-06-03T11:41:20.226Z,100842.98
2018-06-03T11:43:48.691Z,100839.41
2018-06-03T11:46:17.211Z,100837.91
2018-06-03T11:48:45.679Z,100841.30
2018-06-03T11:51:14.400Z,100840.84
2018-06-03T11:53:42.860Z,100834.71
2018-06-03T11:56:11.276Z,100842.62
2018-06-03T11:58:51.391Z,100832.91
2018-06-03T12:01:19.937Z,100829.58
2018-06-03T12:03:48.572Z,100835.39
2018-06-03T12:06:17.015Z,100841.36
2018-06-03T12:08:45.494Z,100830.15
2018-06-03T12:11:13.952Z,100832.25
2018-06-03T12:13:42.395Z,100826.28
2018-06-03T12:16:10.890Z,100826.28
2018-06-03T12:18:39.343Z,100827.16
2018-06-03T12:21:07.863Z,100822.58
2018-06-03T12:23:36.406Z,100824.03
2018-06-03T12:26:04.853Z,100832.32
2018-06-03T12:28:33.387Z,100825.97
2018-06-03T12:31:02.001Z,100822.66
2018-06-03T12:33:30.500Z,100819.89
2018-06-03T12:35:59.017Z,100820.97
2018-06-03T12:38:27.765Z,100812.02
2018-06-03T12:40:56.397Z,100815.89
2018-06-03T12:43:25.039Z,100808.84
2018-06-03T12:45:53.463Z,100811.31
2018-06-03T12:48:21.936Z,100805.63
2018-06-03T12:50:50.400Z,100804.72
2018-06-03T12:53:18.860Z,100803.48
2018-06-03T12:55:47.323Z,100802.75
2018-06-03T12:58:16.443Z,100806.05
2018-06-03T13:00:45.294Z,100810.59
2018-06-03T13:03:13.890Z,100805.93
2018-06-03T13:05:42.839Z,100806.83
2018-06-03T13:08:11.807Z,100797.72
2018-06-03T13:10:40.663Z,100797.57
2018-06-03T13:13:09.727Z,100801.61
2018-06-03T13:15:38.444Z,100793.77
2018-06-03T13:18:07.450Z,100795.93
2018-06-03T13:20:36.319Z,100793.83
2018-06-03T13:23:04.923Z,100795.58
2018-06-03T13:25:33.871Z,100784.52
2018-06-03T13:28:02.482Z,100784.68
2018-06-03T13:30:31.436Z,100776.61
2018-06-03T13:33:00.343Z,100777.20
2018-06-03T13:35:29.490Z,100772.86
2018-06-03T13:37:58.030Z,100773.80
2018-06-03T13:40:26.649Z,100778.09
2018-06-03T13:42:55.523Z,100768.16
2018-06-03T13:45:24.131Z,100763.41
2018-06-03T13:47:52.651Z,100758.52
2018-06-03T13:50:21.127Z,100753.86
2018-06-03T13:52:49.649Z,100752.16
2018-06-03T13:55:18.276Z,100752.77
2018-06-03T13:57:46.898Z,100749.58
2018-06-03T14:00:15.461Z,100751.97
2018-06-03T14:02:43.903Z,100743.48
2018-06-03T14:05:12.916Z,100744.44
2018-06-03T14:07:41.362Z,100743.33
2018-06-03T14:10:10.747Z,100741.55
2018-06-03T14:12:40.228Z,100737.98
2018-06-03T14:15:09.041Z,100738.00
2018-06-03T14:17:37.850Z,100742.17
2018-06-03T14:20:06.551Z,100733.64
2018-06-03T14:22:35.326Z,100736.30
2018-06-03T14:25:03.941Z,100731.27
2018-06-03T14:27:32.832Z,100729.16
2018-06-03T14:30:01.419Z,100731.34
2018-06-03T14:32:30.057Z,100730.51
2018-06-03T14:34:58.798Z,100733.13
2018-06-03T14:37:27.591Z,100732.28
2018-06-03T14:39:56.612Z,100718.11
2018-06-03T14:42:25.395Z,100724.31
2018-06-03T14:44:53.898Z,100730.02
2018-06-03T14:47:22.539Z,100722.84
2018-06-03T14:49:51.161Z,100727.00
2018-06-03T14:52:20.365Z,100720.52
2018-06-03T14:54:49.025Z,100717.66
2018-06-03T14:57:17.944Z,100719.59
2018-06-03T14:59:46.387Z,100712.75
2018-06-03T15:02:14.908Z,100715.77
2018-06-03T15:04:43.525Z,100711.87
2018-06-03T15:07:12.130Z,100710.22
2018-06-03T15:09:40.757Z,100713.41
2018-06-03T15:12:09.253Z,100710.27
2018-06-03T15:14:37.688Z,100709.86
2018-06-03T15:17:06.461Z,100708.45
2018-06-03T15:19:34.963Z,100699.14
2018-06-03T15:22:03.445Z,100710.20
2018-06-03T15:24:32.193Z,100709.19
2018-06-03T15:27:00.681Z,100707.15
2018-06-03T15:29:29.205Z,100698.57
2018-06-03T15:31:57.716Z,100701.77
2018-06-03T15:34:26.181Z,100693.20
2018-06-03T15:36:54.833Z,100693.34
2018-06-03T15:39:23.293Z,100698.30
2018-06-03T15:41:51.748Z,100690.34
2018-06-03T15:44:20.580Z,100694.20
2018-06-03T15:46:49.731Z,100696.50
2018-06-03T15:49:18.315Z,100690.72
2018-06-03T15:51:46.903Z,100688.63
2018-06-03T15:54:15.415Z,100686.17
2018-06-03T15:56:43.885Z,100685.06
2018-06-03T15:59:12.686Z,100683.38
2018-06-03T16:01:41.132Z,100679.79
2018-06-03T16:04:09.598Z,100685.34
2018-06-03T16:06:38.092Z,100687.45
2018-06-03T16:09:07.610Z,100682.83
2018-06-03T16:11:36.114Z,100678.45
2018-06-03T16:14:05.288Z,100679.55
2018-06-03T16:16:33.761Z,100680.44
2018-06-03T16:19:02.245Z,100672.22
2018-06-03T16:21:30.705Z,100669.22
2018-06-03T16:23:59.152Z,100673.23
2018-06-03T16:26:27.639Z,100664.79
2018-06-03T16:28:56.090Z,100659.50
2018-06-03T16:31:24.561Z,100661.28
2018-06-03T16:33:53.099Z,100648.98
2018-06-03T16:36:21.960Z,100647.01
2018-06-03T16:38:50.411Z,100646.34
2018-06-03T16:41:18.831Z,100648.41
2018-06-03T16:43:47.555Z,100645.18
2018-06-03T16:46:16.005Z,100646.27
2018-06-03T16:48:44.478Z,100644.39
2018-06-03T16:51:13.273Z,100641.84
2018-06-03T16:53:41.862Z,100646.67
2018-06-03T16:56:10.347Z,100635.48
2018-06-03T16:58:38.927Z,100640.20
2018-06-03T17:01:07.666Z,100638.98
2018-06-03T17:03:36.140Z,100643.64
2018-06-03T17:06:04.630Z,100635.91
2018-06-03T17:08:33.112Z,100638.16
2018-06-03T17:11:01.560Z,100627.88
2018-06-03T17:13:30.011Z,100631.84
2018-06-03T17:15:58.762Z,100631.19
2018-06-03T17:18:27.196Z,100635.05
2018-06-03T17:20:55.652Z,100629.48
2018-06-03T17:23:24.134Z,100627.00
2018-06-03T17:25:52.606Z,100621.50
2018-06-03T17:28:21.079Z,100619.08
2018-06-03T17:30:50.291Z,100620.21
2018-06-03T17:33:18.794Z,100612.03
2018-06-03T17:35:47.262Z,100615.16
2018-06-03T17:38:15.850Z,100609.43
2018-06-03T17:40:45.436Z,100609.17
2018-06-03T17:43:13.909Z,100614.39
2018-06-03T17:45:42.461Z,100609.91
2018-06-03T17:48:10.937Z,100611.03
2018-06-03T17:50:39.387Z,100599.55
2018-06-03T17:53:07.927Z,100598.09
2018-06-03T17:55:36.377Z,100594.89
2018-06-03T17:58:04.957Z,100588.84
2018-06-03T18:00:33.413Z,100593.67
2018-06-03T18:03:01.935Z,100593.89
2018-06-03T18:05:30.406Z,100590.82
2018-06-03T18:07:58.969Z,100589.00
2018-06-03T18:10:28.047Z,100593.48
2018-06-03T18:12:56.515Z,100582.47
2018-06-03T18:15:25.065Z,100581.30
2018-06-03T18:17:53.640Z,100577.13
2018-06-03T18:20:22.134Z,100580.13
2018-06-03T18:22:50.609Z,100580.78
2018-06-03T18:25:19.095Z,100580.91
2018-06-03T18:27:47.785Z,100583.52
2018-06-03T18:30:16.286Z,100583.61
2018-06-03T18:32:44.753Z,100582.61
2018-06-03T18:35:13.224Z,100574.34
2018-06-03T18:37:42.228Z,100577.22
2018-06-03T18:40:10.727Z,100583.68
2018-06-03T18:42:39.239Z,100579.86
2018-06-03T18:45:07.758Z,100581.73
2018-06-03T18:47:36.196Z,100579.12
2018-06-03T18:50:04.744Z,100580.80
2018-06-03T18:52:33.198Z,100574.67
2018-06-03T18:55:01.687Z,100582.87
2018-06-03T18:57:30.211Z,100577.00
2018-06-03T18:59:58.703Z,100579.72
2018-06-03T19:02:27.164Z,100578.61
2018-06-03T19:04:55.604Z,100573.96
2018-06-03T19:07:24.083Z,100584.28
2018-06-03T19:09:52.665Z,100580.96
2018-06-03T19:12:21.208Z,100585.87
2018-06-03T19:14:49.690Z,100581.14
2018-06-03T19:17:18.119Z,100582.05
2018-06-03T19:19:46.607Z,100583.47
2018-06-03T19:22:15.059Z,100576.13
2018-06-03T19:24:43.532Z,100579.70
2018-06-03T19:27:11.988Z,100573.28
2018-06-03T19:29:40.434Z,100581.20
2018-06-03T19:32:08.870Z,100579.40
2018-06-03T19:34:37.379Z,100583.59
2018-06-03T19:37:05.931Z,100582.75
2018-06-03T19:39:34.648Z,100588.95
2018-06-03T19:42:03.350Z,100583.94
2018-06-03T19:44:32.243Z,100584.22
2018-06-03T19:47:01.155Z,100586.42
2018-06-03T19:49:30.708Z,100585.55
2018-06-03T19:51:59.230Z,100594.38
2018-06-03T19:54:27.677Z,100589.91
2018-06-03T19:56:56.210Z,100589.97
2018-06-03T19:59:24.778Z,100594.42
2018-06-03T20:01:53.309Z,100598.67
2018-06-03T20:04:21.771Z,100596.41
2018-06-03T20:06:50.235Z,100589.67
2018-06-03T20:09:18.725Z,100591.70
2018-06-03T20:11:47.153Z,100582.81
2018-06-03T20:14:15.615Z,100588.48
2018-06-03T20:16:44.134Z,100588.66
2018-06-03T20:19:12.594Z,100584.34
2018-06-03T20:30:02.758Z,100584.90
2018-06-03T20:32:31.266Z,100586.67
2018-06-03T20:34:59.816Z,100585.63
2018-06-03T20:37:28.490Z,100584.79
2018-06-03T20:39:57.256Z,100584.06
2018-06-03T20:42:25.841Z,100590.13
2018-06-03T20:44:55.530Z,100589.28
2018-06-03T20:47:24.275Z,100588.66
2018-06-03T20:49:57.746Z,100590.89
2018-06-03T20:52:26.495Z,100591.20
2018-06-03T20:54:56.278Z,100589.69
2018-06-03T20:57:27.873Z,100591.67
2018-06-03T20:59:59.263Z,100590.05
2018-06-03T21:02:29.255Z,100591.89
2018-06-03T21:04:59.735Z,100591.59
2018-06-03T21:07:32.285Z,100591.30
2018-06-03T21:10:03.008Z,100594.22
2018-06-03T21:12:32.652Z,100592.39
2018-06-03T21:15:02.745Z,100589.56
2018-06-03T21:17:31.581Z,100592.16
2018-06-03T21:20:02.329Z,100594.69
2018-06-03T21:22:31.452Z,100597.95
2018-06-03T21:25:01.262Z,100595.06
2018-06-03T21:27:30.258Z,100596.66
2018-06-03T21:29:59.457Z,100595.46
2018-06-03T21:32:29.464Z,100596.42
2018-06-03T21:35:01.440Z,100596.95
2018-06-03T21:37:30.572Z,100598.05
2018-06-03T21:39:59.506Z,100600.64
2018-06-03T21:42:28.319Z,100598.42
2018-06-03T21:44:57.120Z,100599.35
2018-06-03T21:47:26.368Z,100598.65
2018-06-03T21:49:56.845Z,100606.90
2018-06-03T21:52:26.952Z,100599.25
2018-06-03T21:55:01.501Z,100605.06
2018-06-03T21:57:32.463Z,100600.47
2018-06-03T22:00:01.638Z,100601.44
2018-06-03T22:02:32.953Z,100606.69
2018-06-03T22:05:02.446Z,100603.86
2018-06-03T22:07:31.903Z,100605.31
2018-06-03T22:10:00.517Z,100605.31
2018-06-03T22:12:29.434Z,100598.37
2018-06-03T22:14:58.552Z,100609.73
2018-06-03T22:17:27.337Z,100608.96
2018-06-03T22:19:56.269Z,100606.27
2018-06-03T22:22:24.842Z,100607.27
2018-06-03T22:24:53.572Z,100606.90
2018-06-03T22:27:22.733Z,100607.03
2018-06-03T22:29:51.490Z,100604.06
2018-06-03T22:32:20.165Z,100604.84
2018-06-03T22:34:48.851Z,100600.64
2018-06-03T22:37:17.964Z,100605.73
2018-06-03T22:39:46.606Z,100600.18
2018-06-03T22:42:15.394Z,100603.77
2018-06-03T22:44:44.034Z,100598.64
2018-06-03T22:47:12.749Z,100596.64
2018-06-03T22:49:41.389Z,100593.97
2018-06-03T22:52:10.074Z,100592.73
2018-06-03T22:54:38.693Z,100595.85
2018-06-03T22:57:51.093Z,100597.95
2018-06-03T23:00:28.730Z,100594.69
2018-06-03T23:03:02.891Z,100597.03
2018-06-03T23:05:31.645Z,100599.84
2018-06-03T23:08:00.258Z,100591.73
2018-06-03T23:10:29.047Z,100589.76
2018-06-03T23:12:57.622Z,100584.80
2018-06-03T23:15:26.135Z,100586.21
2018-06-03T23:17:54.633Z,100585.30
2018-06-03T23:20:23.299Z,100585.67
2018-06-03T23:22:51.861Z,100584.94
2018-06-03T23:25:20.487Z,100584.02
2018-06-03T23:27:49.233Z,100583.23
2018-06-03T23:30:17.922Z,100580.34
2018-06-03T23:32:46.514Z,100579.07
2018-06-03T23:35:15.169Z,100580.77
2018-06-03T23:37:44.013Z,100572.87
2018-06-03T23:40:12.614Z,100566.09
2018-06-03T23:42:41.144Z,100565.77
2018-06-03T23:45:09.594Z,100564.80
2018-06-03T23:47:38.075Z,100558.22
2018-06-03T23:50:06.614Z,100560.98
2018-06-03T23:52:35.466Z,100553.31
2018-06-03T23:55:03.923Z,100552.19
2018-06-03T23:57:32.500Z,100550.47
